Time;durP1;ratioP1;P1;durP2;ratioP2;P2;SDS_P1;SDS_P2;PMS_P1;PMS_P2;Temp;Humidity;BMP_temperature;BMP_pressure;BME280_temperature;BME280_humidity;BME280_pressure;Samples;Min_cycle;Max_cycle;Signal;HPM_P1;HPM_P2
2021/12/31 02:48:38;;;;;;;;;81.00;70.00;22.70;99.90;;;;;;4969678;27;2924816;-70
2021/12/31 02:51:06;;;;;;;;;89.20;78.00;22.70;99.90;;;;;;5069212;28;8753;-70
2021/12/31 02:53:41;;;;;;;;;76.00;61.00;23.20;99.90;;;;;;5052841;28;8772;-68
2021/12/31 02:56:12;;;;;;;;;76.40;63.80;23.60;99.90;;;;;;5052750;28;8868;-69
2021/12/31 02:58:40;;;;;;;;;74.80;59.00;23.90;99.90;;;;;;5054114;28;8839;-69
2021/12/31 03:01:08;;;;;;;;;65.80;51.40;24.10;99.90;;;;;;5053545;28;8834;-69
2021/12/31 03:03:35;;;;;;;;;65.75;51.75;24.30;99.90;;;;;;5053458;28;8740;-68
2021/12/31 03:06:02;;;;;;;;;62.00;51.00;24.40;99.90;;;;;;5053973;28;8736;-68
2021/12/31 03:08:32;;;;;;;;;65.75;51.25;24.60;99.90;;;;;;5053372;28;8752;-68
2021/12/31 03:11:01;;;;;;;;;68.75;54.00;24.80;99.90;;;;;;5052718;28;8824;-69
2021/12/31 03:13:28;;;;;;;;;67.75;53.50;25.20;99.90;;;;;;5053453;28;8941;-68
2021/12/31 03:15:55;;;;;;;;;67.75;52.25;25.30;99.90;;;;;;5036727;28;8712;-69
2021/12/31 03:18:24;;;;;;;;;63.50;50.00;25.30;99.90;;;;;;5053362;28;8744;-68
2021/12/31 03:21:00;;;;;;;;;60.50;47.50;25.40;99.90;;;;;;5052410;28;8709;-69
2021/12/31 03:23:28;;;;;;;;;60.25;48.75;25.40;99.90;;;;;;5053202;28;8921;-69
2021/12/31 03:25:55;;;;;;;;;64.00;49.00;25.40;99.90;;;;;;5068652;28;8747;-69
2021/12/31 03:28:21;;;;;;;;;61.25;47.00;25.30;99.90;;;;;;5053521;28;8717;-67
2021/12/31 03:30:48;;;;;;;;;59.75;46.50;25.20;99.90;;;;;;5053491;28;8867;-68
2021/12/31 03:33:15;;;;;;;;;60.25;46.75;25.40;99.90;;;;;;5053575;28;8835;-69
2021/12/31 03:35:42;;;;;;;;;54.25;43.50;25.40;99.90;;;;;;5053645;28;8740;-69
2021/12/31 03:38:09;;;;;;;;;57.00;46.00;25.40;99.90;;;;;;5052585;28;8783;-68
2021/12/31 03:40:36;;;;;;;;;56.50;46.25;25.50;99.90;;;;;;5052434;28;8714;-68
2021/12/31 03:43:02;;;;;;;;;49.50;42.00;25.60;99.90;;;;;;5054526;28;8815;-68
2021/12/31 03:45:29;;;;;;;;;51.25;43.00;25.70;99.90;;;;;;5052256;28;8720;-68
2021/12/31 03:47:56;;;;;;;;;57.50;46.50;25.90;99.90;;;;;;5052694;28;8752;-69
2021/12/31 03:50:23;;;;;;;;;52.75;42.50;25.90;99.90;;;;;;5053561;28;8827;-68
2021/12/31 03:52:49;;;;;;;;;57.00;46.00;26.00;99.90;;;;;;5054095;28;8950;-68
2021/12/31 03:55:16;;;;;;;;;55.50;44.00;26.30;99.90;;;;;;5053516;28;8744;-68
2021/12/31 03:57:43;;;;;;;;;53.50;42.25;26.40;99.90;;;;;;5053243;28;8752;-69
2021/12/31 04:00:11;;;;;;;;;54.50;43.00;26.40;99.90;;;;;;5037919;28;8830;-69
2021/12/31 04:02:38;;;;;;;;;44.50;36.50;26.50;99.90;;;;;;5038022;28;8768;-69
2021/12/31 04:05:05;;;;;;;;;49.75;42.75;26.50;99.90;;;;;;5038072;28;8781;-64
2021/12/31 04:07:31;;;;;;;;;51.50;41.50;26.50;99.90;;;;;;5019991;28;8775;-68
2021/12/31 04:09:58;;;;;;;;;50.00;40.25;26.60;99.90;;;;;;5038588;28;8825;-69
2021/12/31 04:12:25;;;;;;;;;42.50;37.75;26.70;99.90;;;;;;5037938;28;8772;-69
2021/12/31 04:14:51;;;;;;;;;50.50;39.50;26.60;99.90;;;;;;5038089;28;8760;-70
2021/12/31 04:17:18;;;;;;;;;51.00;40.00;26.90;99.90;;;;;;5039166;28;8768;-69
2021/12/31 04:19:51;;;;;;;;;43.75;37.50;27.00;99.90;;;;;;5039188;28;8897;-70
2021/12/31 04:22:20;;;;;;;;;44.75;37.75;27.10;99.90;;;;;;5039709;28;8787;-68
2021/12/31 04:27:16;;;;;;;;;44.50;35.75;27.30;99.90;;;;;;5038877;28;8907;-70
2021/12/31 04:29:50;;;;;;;;;42.75;35.00;27.40;99.90;;;;;;5039345;28;8772;-70
2021/12/31 04:32:17;;;;;;;;;44.75;37.00;27.40;99.90;;;;;;5039297;28;8771;-68
2021/12/31 04:34:44;;;;;;;;;40.00;33.75;27.30;99.90;;;;;;5038957;28;8786;-70
2021/12/31 04:37:11;;;;;;;;;39.50;33.25;27.50;99.90;;;;;;5038621;28;8766;-70
2021/12/31 04:39:38;;;;;;;;;36.75;33.25;27.70;99.90;;;;;;5038568;28;8811;-70
2021/12/31 04:42:05;;;;;;;;;38.25;32.75;27.60;99.90;;;;;;5038818;28;8788;-70
2021/12/31 04:44:32;;;;;;;;;37.75;32.75;27.70;99.90;;;;;;5038396;28;8841;-70
2021/12/31 04:46:58;;;;;;;;;35.50;32.00;27.60;99.90;;;;;;5037193;28;8769;-70
2021/12/31 04:49:25;;;;;;;;;41.00;33.00;27.70;99.90;;;;;;5038470;28;8775;-69
2021/12/31 04:51:52;;;;;;;;;42.50;34.25;27.70;99.90;;;;;;5054452;28;8733;-70
2021/12/31 04:54:19;;;;;;;;;37.00;32.25;28.00;99.90;;;;;;5037420;28;8760;-68
2021/12/31 04:56:46;;;;;;;;;33.50;32.00;28.10;99.90;;;;;;5037430;28;8764;-70
2021/12/31 04:59:12;;;;;;;;;39.50;32.50;28.20;99.90;;;;;;5038967;28;8973;-70
2021/12/31 05:01:39;;;;;;;;;33.00;30.75;28.30;99.90;;;;;;5038637;28;8787;-70
2021/12/31 05:04:06;;;;;;;;;32.00;28.75;28.50;99.30;;;;;;5039230;28;8764;-70
2021/12/31 05:06:33;;;;;;;;;34.75;32.50;28.50;98.80;;;;;;5038277;28;8783;-70
2021/12/31 05:09:00;;;;;;;;;33.75;29.25;28.40;98.80;;;;;;5037974;28;8749;-70
2021/12/31 05:11:27;;;;;;;;;33.25;29.25;28.50;99.20;;;;;;5037177;28;8790;-70
2021/12/31 05:13:54;;;;;;;;;31.00;27.25;28.60;98.30;;;;;;5036789;28;8768;-69
2021/12/31 05:16:20;;;;;;;;;29.00;26.75;28.50;97.40;;;;;;5038889;28;8745;-69
2021/12/31 05:18:47;;;;;;;;;35.25;32.50;28.40;97.40;;;;;;5038216;28;8760;-70
2021/12/31 05:21:14;;;;;;;;;37.00;26.75;28.30;97.60;;;;;;5037954;28;8741;-70
2021/12/31 05:23:40;;;;;;;;;27.75;27.25;28.20;97.70;;;;;;5038391;28;8760;-70
2021/12/31 05:26:07;;;;;;;;;25.50;25.25;28.00;98.10;;;;;;5038253;28;8855;-70
2021/12/31 05:28:33;;;;;;;;;31.60;26.80;28.00;97.20;;;;;;5037715;28;8880;-69
2021/12/31 05:31:00;;;;;;;;;29.50;25.75;28.20;97.60;;;;;;5038796;28;8809;-69
2021/12/31 05:33:27;;;;;;;;;31.75;29.00;28.40;97.00;;;;;;5029711;28;8755;-69
2021/12/31 05:35:56;;;;;;;;;28.50;25.75;28.60;96.80;;;;;;5018164;28;8747;-70
2021/12/31 05:38:23;;;;;;;;;31.75;27.75;28.70;96.20;;;;;;5018087;28;8762;-70
2021/12/31 05:40:50;;;;;;;;;23.50;22.75;28.90;95.90;;;;;;5022134;28;8779;-70
2021/12/31 05:43:16;;;;;;;;;30.00;27.00;28.90;96.30;;;;;;5038164;28;8801;-67
2021/12/31 05:45:43;;;;;;;;;27.50;24.50;29.00;96.30;;;;;;5037606;28;8732;-70
2021/12/31 05:48:10;;;;;;;;;25.25;23.00;29.10;95.50;;;;;;5037021;28;8768;-68
2021/12/31 05:50:36;;;;;;;;;24.75;21.25;29.10;95.50;;;;;;5037531;28;8760;-68
2021/12/31 05:53:03;;;;;;;;;25.25;22.00;29.10;95.20;;;;;;5037853;28;8733;-68
2021/12/31 05:55:30;;;;;;;;;25.50;22.25;29.00;94.80;;;;;;5037211;28;8765;-67
2021/12/31 05:57:57;;;;;;;;;29.25;26.00;29.10;95.50;;;;;;5036461;28;8772;-70
2021/12/31 06:00:24;;;;;;;;;28.50;26.25;29.40;95.40;;;;;;5037433;28;8764;-70
2021/12/31 06:02:51;;;;;;;;;19.00;18.50;29.60;94.90;;;;;;5037110;28;9428;-70
2021/12/31 06:05:17;;;;;;;;;24.25;22.75;29.50;93.90;;;;;;5035954;28;8748;-69
2021/12/31 06:07:44;;;;;;;;;26.80;23.40;29.30;94.40;;;;;;5037774;28;8806;-69
2021/12/31 06:10:11;;;;;;;;;26.75;24.50;29.20;94.70;;;;;;5038552;28;8749;-70
2021/12/31 06:12:38;;;;;;;;;21.80;19.20;29.40;94.80;;;;;;5055420;28;8807;-71
2021/12/31 06:15:08;;;;;;;;;22.75;22.75;29.40;94.80;;;;;;5057432;28;8801;-71
2021/12/31 06:17:36;;;;;;;;;26.00;23.80;29.40;94.00;;;;;;5055549;28;8788;-70
2021/12/31 06:20:04;;;;;;;;;23.60;20.80;29.30;93.90;;;;;;5072535;28;8789;-70
2021/12/31 06:22:31;;;;;;;;;31.50;26.50;29.30;94.80;;;;;;5055426;28;9540;-70
2021/12/31 06:24:58;;;;;;;;;29.20;27.00;29.30;94.20;;;;;;5056115;28;8868;-71
2021/12/31 06:27:25;;;;;;;;;26.00;22.00;29.40;94.10;;;;;;5056211;28;8809;-70
2021/12/31 06:29:51;;;;;;;;;18.60;17.80;29.40;92.40;;;;;;5056956;28;8749;-71
2021/12/31 06:32:18;;;;;;;;;22.60;22.60;29.20;93.10;;;;;;5055526;28;8903;-69
2021/12/31 06:34:45;;;;;;;;;22.00;20.20;29.40;92.40;;;;;;5056892;28;9443;-70
2021/12/31 06:37:11;;;;;;;;;21.20;19.20;29.30;92.80;;;;;;5057074;28;8742;-71
2021/12/31 06:39:40;;;;;;;;;21.80;21.80;29.30;93.40;;;;;;5056616;28;8782;-71
2021/12/31 06:42:10;;;;;;;;;21.80;18.20;29.30;92.70;;;;;;5056714;28;9450;-70
2021/12/31 06:44:40;;;;;;;;;26.60;24.20;29.30;92.70;;;;;;5056759;28;8818;-70
2021/12/31 06:47:07;;;;;;;;;20.80;17.20;29.40;92.60;;;;;;5056330;28;8785;-70
2021/12/31 06:49:33;;;;;;;;;22.00;18.60;29.50;92.40;;;;;;5056743;28;8815;-70
2021/12/31 06:52:00;;;;;;;;;21.80;19.60;29.70;91.20;;;;;;5057212;28;8765;-70
2021/12/31 06:54:27;;;;;;;;;18.80;18.60;29.60;91.70;;;;;;5056588;28;9445;-68
2021/12/31 06:56:53;;;;;;;;;23.20;19.60;29.80;91.50;;;;;;5072279;28;8762;-69
2021/12/31 06:59:20;;;;;;;;;21.20;20.00;30.00;91.30;;;;;;5056688;28;8781;-68
2021/12/31 07:01:47;;;;;;;;;20.60;17.80;29.80;91.90;;;;;;5056658;28;8846;-69
2021/12/31 07:04:13;;;;;;;;;26.80;20.80;29.60;92.00;;;;;;5057369;28;8730;-68
2021/12/31 07:06:40;;;;;;;;;21.60;21.00;29.40;92.00;;;;;;5056645;28;8740;-69
2021/12/31 07:09:06;;;;;;;;;16.40;15.40;29.30;91.80;;;;;;5057078;28;10031;-70
2021/12/31 07:11:33;;;;;;;;;13.20;12.60;29.30;92.10;;;;;;5056299;28;8788;-70
2021/12/31 07:14:00;;;;;;;;;14.00;12.20;29.60;90.30;;;;;;5045842;28;8767;-70
2021/12/31 07:16:27;;;;;;;;;10.80;10.00;29.60;89.20;;;;;;5045968;28;8742;-65
2021/12/31 07:18:53;;;;;;;;;14.40;14.40;29.70;87.80;;;;;;5036645;28;8740;-69
2021/12/31 07:21:20;;;;;;;;;9.80;8.20;29.90;87.60;;;;;;5035497;28;8775;-67
2021/12/31 07:23:47;;;;;;;;;14.60;14.60;30.10;86.40;;;;;;5036826;28;8775;-69
2021/12/31 07:26:13;;;;;;;;;16.00;14.40;30.00;85.80;;;;;;5036626;28;8883;-71
2021/12/31 07:28:40;;;;;;;;;10.40;10.40;29.70;87.80;;;;;;5036129;28;8768;-71
2021/12/31 07:31:11;;;;;;;;;10.00;10.00;29.70;86.20;;;;;;5019320;28;8945;-71
2021/12/31 07:33:38;;;;;;;;;12.00;10.00;29.90;84.90;;;;;;5054179;28;8749;-71
2021/12/31 07:36:05;;;;;;;;;12.00;12.00;29.90;84.70;;;;;;5060620;28;8769;-69
2021/12/31 07:38:38;;;;;;;;;8.80;7.40;30.00;86.20;;;;;;5060438;28;8811;-69
2021/12/31 07:41:05;;;;;;;;;15.40;14.60;30.00;87.80;;;;;;5059318;28;8843;-69
2021/12/31 07:43:32;;;;;;;;;16.00;14.80;30.00;88.00;;;;;;5060199;28;8772;-68
2021/12/31 07:45:59;;;;;;;;;11.40;11.20;29.90;88.70;;;;;;5061043;28;8730;-68
2021/12/31 07:48:26;;;;;;;;;16.60;12.60;30.00;87.20;;;;;;5059046;28;8773;-68
2021/12/31 07:50:53;;;;;;;;;14.40;13.80;29.90;87.20;;;;;;5075062;28;9438;-69
2021/12/31 07:53:20;;;;;;;;;14.60;12.00;30.00;86.30;;;;;;5058322;28;8718;-67
2021/12/31 07:55:46;;;;;;;;;13.60;13.60;30.00;85.70;;;;;;5060001;28;8761;-68
2021/12/31 07:58:13;;;;;;;;;13.80;11.60;30.10;86.50;;;;;;5059230;28;8800;-69
2021/12/31 08:00:40;;;;;;;;;14.40;14.20;30.10;84.40;;;;;;5059382;28;8769;-68
2021/12/31 08:03:06;;;;;;;;;7.80;7.40;30.10;85.00;;;;;;5059414;28;8794;-68
2021/12/31 08:05:33;;;;;;;;;17.20;13.60;30.10;84.90;;;;;;5058579;28;8777;-69
2021/12/31 08:08:01;;;;;;;;;14.80;14.80;30.20;84.90;;;;;;5059854;28;8758;-67
2021/12/31 08:10:28;;;;;;;;;14.00;12.80;30.20;86.20;;;;;;5057955;28;8769;-68
2021/12/31 08:12:55;;;;;;;;;17.00;13.20;30.20;86.00;;;;;;5060020;28;8762;-68
2021/12/31 08:15:21;;;;;;;;;13.60;13.40;30.20;85.70;;;;;;5059494;28;8780;-68
2021/12/31 08:17:48;;;;;;;;;14.40;12.80;30.10;86.60;;;;;;5059603;28;8855;-68
2021/12/31 08:20:15;;;;;;;;;14.80;13.20;30.10;85.50;;;;;;5059137;28;8765;-68
2021/12/31 08:22:41;;;;;;;;;13.40;13.40;30.10;85.60;;;;;;5059284;28;8765;-69
2021/12/31 08:25:09;;;;;;;;;15.80;14.40;30.10;86.80;;;;;;5059424;28;9415;-69
2021/12/31 08:27:35;;;;;;;;;17.80;14.20;30.10;86.50;;;;;;5058241;28;8777;-69
2021/12/31 08:30:02;;;;;;;;;15.80;15.40;30.20;86.60;;;;;;5058063;28;8769;-69
2021/12/31 08:32:29;;;;;;;;;18.80;17.00;30.10;86.80;;;;;;5058554;28;8766;-68
2021/12/31 08:34:55;;;;;;;;;17.00;14.60;30.10;87.10;;;;;;5057920;28;8880;-68
2021/12/31 08:37:22;;;;;;;;;18.20;15.60;30.10;87.20;;;;;;5041594;28;8718;-68
2021/12/31 08:39:49;;;;;;;;;20.00;19.20;30.10;86.90;;;;;;5058890;28;8754;-69
2021/12/31 08:42:15;;;;;;;;;21.00;16.75;30.00;87.60;;;;;;5058506;28;8765;-68
2021/12/31 08:44:42;;;;;;;;;19.00;17.20;30.00;87.40;;;;;;5057326;28;8766;-68
2021/12/31 08:47:09;;;;;;;;;18.60;17.00;29.90;87.20;;;;;;5058129;28;8833;-69
2021/12/31 08:49:36;;;;;;;;;19.00;16.00;29.80;86.60;;;;;;5073520;28;8823;-68
2021/12/31 08:52:02;;;;;;;;;16.60;14.40;29.70;87.90;;;;;;5074460;28;8762;-69
2021/12/31 08:54:29;;;;;;;;;21.00;18.40;29.80;87.70;;;;;;5058218;28;8765;-68
2021/12/31 08:56:57;;;;;;;;;17.75;16.50;29.90;86.90;;;;;;5058502;28;8750;-68
2021/12/31 08:59:24;;;;;;;;;18.50;17.50;30.10;86.80;;;;;;5058303;28;8765;-68
2021/12/31 09:01:51;;;;;;;;;18.60;15.80;30.10;86.20;;;;;;5073701;28;8895;-69
2021/12/31 09:04:17;;;;;;;;;19.40;17.00;30.10;85.80;;;;;;5059148;28;8750;-67
2021/12/31 09:06:44;;;;;;;;;18.20;18.00;30.10;85.30;;;;;;5058331;28;8742;-68
2021/12/31 09:09:11;;;;;;;;;17.40;17.40;30.10;86.70;;;;;;5058538;28;8761;-68
2021/12/31 09:11:37;;;;;;;;;19.00;18.20;30.00;87.70;;;;;;5058237;28;8769;-68
2021/12/31 09:14:04;;;;;;;;;19.20;19.20;30.00;86.90;;;;;;5058599;28;8868;-68
2021/12/31 09:16:31;;;;;;;;;19.20;15.00;30.10;87.00;;;;;;5057870;28;8888;-68
2021/12/31 09:18:57;;;;;;;;;17.20;15.80;30.10;86.90;;;;;;5058344;28;8741;-68
2021/12/31 09:21:24;;;;;;;;;11.00;11.00;30.00;87.20;;;;;;5057674;28;8733;-67
2021/12/31 09:23:51;;;;;;;;;20.60;17.80;29.70;87.50;;;;;;5058184;28;8848;-68
2021/12/31 09:26:17;;;;;;;;;16.50;14.50;29.60;89.60;;;;;;5058087;28;8749;-66
2021/12/31 09:28:44;;;;;;;;;10.00;10.00;29.50;90.00;;;;;;5057616;28;8734;-68
2021/12/31 09:31:11;;;;;;;;;18.60;16.60;29.40;90.00;;;;;;5058250;28;8746;-68
2021/12/31 09:33:38;;;;;;;;;19.25;17.50;29.30;90.50;;;;;;5057373;28;8757;-68
2021/12/31 09:36:05;;;;;;;;;20.00;17.75;29.10;91.00;;;;;;5057784;28;9354;-68
2021/12/31 09:38:32;;;;;;;;;20.00;18.00;29.20;90.90;;;;;;5057451;28;8873;-67
2021/12/31 09:40:58;;;;;;;;;19.40;18.20;29.40;88.30;;;;;;5057762;28;9142;-68
2021/12/31 09:43:25;;;;;;;;;25.25;23.75;29.40;87.60;;;;;;5057418;28;9041;-67
2021/12/31 09:45:53;;;;;;;;;20.80;20.00;29.50;88.20;;;;;;5058206;28;8733;-68
2021/12/31 09:48:23;;;;;;;;;24.75;22.50;29.50;87.70;;;;;;5056395;28;8830;-66
2021/12/31 09:50:54;;;;;;;;;19.75;18.00;29.60;87.20;;;;;;5057312;28;9154;-68
2021/12/31 09:53:21;;;;;;;;;18.00;16.25;29.70;87.40;;;;;;5057286;28;8844;-67
2021/12/31 09:55:51;;;;;;;;;20.00;18.25;29.60;87.50;;;;;;5056250;28;8766;-67
2021/12/31 09:58:19;;;;;;;;;26.25;21.75;29.70;87.30;;;;;;5057342;28;8800;-66
2021/12/31 10:00:51;;;;;;;;;23.00;20.50;29.60;87.70;;;;;;5056117;28;8905;-68
2021/12/31 10:03:28;;;;;;;;;24.00;19.75;29.60;89.80;;;;;;5072149;28;8778;-66
2021/12/31 10:06:02;;;;;;;;;24.50;23.00;29.40;90.60;;;;;;5055948;28;8729;-68
2021/12/31 10:08:30;;;;;;;;;25.25;23.75;29.30;90.60;;;;;;5072194;28;8761;-67
2021/12/31 10:11:26;;;;;;;;;27.25;21.75;29.20;90.10;;;;;;5057297;28;8714;-68
2021/12/31 10:13:52;;;;;;;;;21.25;19.50;29.10;90.20;;;;;;5057133;28;8788;-68
2021/12/31 10:16:23;;;;;;;;;25.50;23.50;29.20;90.00;;;;;;5057385;28;8740;-67
2021/12/31 10:18:50;;;;;;;;;21.75;21.50;29.10;89.90;;;;;;5056679;28;8803;-68
2021/12/31 10:21:20;;;;;;;;;20.25;18.25;29.20;89.00;;;;;;5055578;28;8750;-67
2021/12/31 10:23:47;;;;;;;;;21.75;21.00;29.20;88.80;;;;;;5072278;28;8887;-69
2021/12/31 10:26:17;;;;;;;;;21.00;20.20;29.20;89.30;;;;;;5056798;28;8888;-69
2021/12/31 10:28:57;;;;;;;;;20.80;19.20;29.10;90.50;;;;;;5056809;28;8746;-69
2021/12/31 10:31:24;;;;;;;;;26.00;23.00;29.00;90.80;;;;;;5057223;28;8852;-68
2021/12/31 10:33:51;;;;;;;;;24.40;24.40;28.90;91.40;;;;;;5072009;28;8772;-69
2021/12/31 10:36:33;;;;;;;;;22.00;18.00;28.80;91.50;;;;;;5056376;28;8784;-68
2021/12/31 10:39:03;;;;;;;;;25.75;23.00;28.80;91.80;;;;;;5056772;28;8745;-69
2021/12/31 10:41:30;;;;;;;;;21.25;19.75;28.70;92.30;;;;;;5072016;28;10050;-68
2021/12/31 10:44:00;;;;;;;;;20.00;19.50;28.60;92.40;;;;;;5056836;28;8757;-68
2021/12/31 10:46:27;;;;;;;;;25.50;22.25;28.50;92.10;;;;;;5054975;28;8750;-68
2021/12/31 10:49:02;;;;;;;;;20.60;17.40;28.40;92.00;;;;;;5056857;28;8766;-69
2021/12/31 10:51:35;;;;;;;;;25.00;22.40;28.30;92.60;;;;;;5056459;28;8754;-68
2021/12/31 10:55:00;;;;;;;;;28.00;25.75;28.20;92.70;;;;;;5056698;28;8860;-69
2021/12/31 10:57:33;;;;;;;;;39.00;33.50;28.10;93.30;;;;;;5053500;28;8769;-68
2021/12/31 11:00:00;;;;;;;;;29.75;29.00;27.90;93.30;;;;;;5055341;28;8750;-68
2021/12/31 11:02:26;;;;;;;;;26.25;24.50;27.80;94.10;;;;;;5056356;28;8765;-68
2021/12/31 11:04:53;;;;;;;;;39.00;32.50;27.70;94.30;;;;;;5056719;28;8746;-69
2021/12/31 11:07:19;;;;;;;;;33.25;31.25;27.60;94.20;;;;;;5038806;28;8787;-68
2021/12/31 11:09:46;;;;;;;;;33.50;31.00;27.60;94.60;;;;;;5057780;28;8841;-68
2021/12/31 11:12:13;;;;;;;;;36.75;32.25;27.60;94.80;;;;;;5059108;28;8797;-68
2021/12/31 11:14:40;;;;;;;;;36.50;33.00;27.50;94.80;;;;;;5059073;28;10082;-68
2021/12/31 11:17:07;;;;;;;;;38.00;32.50;27.50;94.70;;;;;;5059094;28;8792;-69
2021/12/31 11:19:34;;;;;;;;;41.00;34.25;27.40;95.00;;;;;;5058804;28;8766;-68
2021/12/31 11:22:00;;;;;;;;;58.50;45.50;27.40;95.80;;;;;;5043141;28;8753;-69
2021/12/31 11:24:34;;;;;;;;;63.25;49.75;27.30;95.70;;;;;;5058776;28;8815;-68
2021/12/31 11:27:23;;;;;;;;;61.25;48.00;27.20;95.80;;;;;;5059876;28;8844;-68
2021/12/31 11:29:50;;;;;;;;;55.25;44.75;27.10;96.20;;;;;;5060343;28;8796;-68
2021/12/31 11:32:17;;;;;;;;;53.75;42.00;27.10;96.40;;;;;;5058541;28;8772;-67
2021/12/31 11:34:46;;;;;;;;;50.00;39.75;27.00;96.90;;;;;;5058699;28;8738;-68
2021/12/31 11:37:45;;;;;;;;;49.00;40.25;27.00;97.00;;;;;;5059474;28;8738;-68
2021/12/31 11:40:28;;;;;;;;;52.75;40.00;27.00;97.20;;;;;;5068923;28;8742;-68
2021/12/31 11:43:13;;;;;;;;;49.50;40.25;26.90;97.80;;;;;;5060205;28;8762;-69
2021/12/31 11:45:40;;;;;;;;;46.25;38.25;26.90;98.00;;;;;;5060123;28;8757;-68
2021/12/31 11:48:44;;;;;;;;;53.50;40.75;26.80;98.40;;;;;;5058024;28;8827;-69
2021/12/31 11:51:11;;;;;;;;;48.50;37.50;26.70;98.90;;;;;;5059789;28;8758;-69
2021/12/31 11:54:01;;;;;;;;;50.00;40.00;26.70;98.60;;;;;;5059482;28;8785;-69
2021/12/31 11:59:10;;;;;;;;;47.50;38.25;26.60;99.40;;;;;;5060302;28;8757;-69
2021/12/31 12:01:52;;;;;;;;;52.25;41.00;26.60;99.60;;;;;;5059721;28;8792;-68
2021/12/31 12:04:32;;;;;;;;;52.00;41.25;26.50;99.60;;;;;;5060244;28;8741;-66
2021/12/31 12:07:05;;;;;;;;;53.50;40.75;26.40;99.90;;;;;;5075250;28;9471;-69
2021/12/31 12:09:40;;;;;;;;;49.75;41.50;26.40;99.90;;;;;;5059428;28;8786;-68
2021/12/31 12:12:14;;;;;;;;;48.00;40.00;26.30;99.90;;;;;;5059477;28;8785;-69
2021/12/31 12:14:45;;;;;;;;;54.50;43.50;26.20;99.90;;;;;;5059576;28;8788;-69
2021/12/31 12:17:16;;;;;;;;;59.75;44.50;26.20;99.90;;;;;;5059352;28;8758;-69
2021/12/31 12:20:05;;;;;;;;;58.50;45.75;26.20;99.90;;;;;;5073975;28;8778;-69
2021/12/31 12:22:34;;;;;;;;;55.25;44.50;26.10;99.90;;;;;;5059402;28;8754;-69
2021/12/31 12:25:01;;;;;;;;;57.00;44.50;26.10;99.90;;;;;;5041969;28;8734;-69
2021/12/31 12:27:28;;;;;;;;;67.25;52.00;26.10;99.90;;;;;;5058742;28;8885;-69
2021/12/31 12:29:57;;;;;;;;;63.25;50.50;26.10;99.90;;;;;;5058891;28;8774;-69
2021/12/31 12:32:33;;;;;;;;;68.00;53.20;26.00;99.90;;;;;;5058706;28;8916;-69
2021/12/31 12:35:12;;;;;;;;;67.50;53.50;26.00;99.90;;;;;;5042476;28;8745;-69
2021/12/31 12:37:39;;;;;;;;;65.25;52.25;25.90;99.90;;;;;;5059306;28;8978;-69
2021/12/31 12:40:06;;;;;;;;;82.40;69.00;25.70;99.90;;;;;;5059233;28;8758;-69
2021/12/31 12:42:33;;;;;;;;;73.20;61.60;25.50;99.90;;;;;;5058425;28;8786;-70
2021/12/31 12:45:04;;;;;;;;;131.80;121.60;25.40;99.90;;;;;;5058843;28;8851;-69
2021/12/31 12:47:31;;;;;;;;;98.00;88.20;25.40;99.90;;;;;;5056427;28;8947;-69
2021/12/31 12:50:04;;;;;;;;;111.60;98.00;25.40;99.90;;;;;;5057433;28;8749;-69
2021/12/31 12:52:31;;;;;;;;;112.60;103.20;25.40;99.90;;;;;;5058291;28;8863;-68
2021/12/31 12:55:18;;;;;;;;;111.60;103.20;25.20;99.90;;;;;;5057613;28;8742;-69
2021/12/31 12:57:52;;;;;;;;;106.80;97.60;25.20;99.90;;;;;;5058835;28;8773;-68
2021/12/31 13:00:29;;;;;;;;;105.80;95.80;25.20;99.90;;;;;;5058465;28;8757;-68
2021/12/31 13:03:03;;;;;;;;;115.40;100.60;25.20;99.90;;;;;;5058593;28;8774;-69
2021/12/31 13:05:30;;;;;;;;;154.50;138.00;25.30;99.90;;;;;;5057262;28;8788;-68
2021/12/31 13:07:56;;;;;;;;;124.60;115.80;25.40;99.90;;;;;;5058359;28;9502;-69
2021/12/31 13:10:24;;;;;;;;;329.75;290.75;25.40;99.90;;;;;;5059423;28;8753;-69
2021/12/31 13:12:51;;;;;;;;;249.25;210.75;25.50;99.90;;;;;;5058904;28;11587;-69
2021/12/31 13:15:18;;;;;;;;;159.50;140.75;25.40;99.90;;;;;;5058334;28;11493;-68
2021/12/31 13:18:26;;;;;;;;;165.00;141.75;25.40;99.90;;;;;;5058337;28;8774;-69
2021/12/31 13:21:15;;;;;;;;;136.60;119.60;25.40;99.90;;;;;;4958441;28;8783;-69
2021/12/31 13:23:49;;;;;;;;;112.60;104.20;25.40;99.90;;;;;;5058332;28;8750;-69
2021/12/31 13:26:20;;;;;;;;;130.20;116.00;25.20;99.90;;;;;;5058428;28;8828;-69
2021/12/31 13:28:48;;;;;;;;;122.40;114.80;25.20;99.90;;;;;;5056682;28;9411;-69
2021/12/31 13:31:16;;;;;;;;;152.20;132.40;25.20;99.90;;;;;;5057799;28;8750;-69
2021/12/31 13:33:49;;;;;;;;;137.80;120.20;25.20;99.90;;;;;;5056333;28;9442;-69
2021/12/31 13:36:17;;;;;;;;;132.00;119.60;25.20;99.90;;;;;;5072934;28;8749;-69
2021/12/31 13:39:00;;;;;;;;;139.00;122.20;25.10;99.90;;;;;;5057759;28;8839;-69
2021/12/31 13:41:27;;;;;;;;;130.00;120.20;25.00;99.90;;;;;;5057445;28;8769;-68
2021/12/31 13:43:58;;;;;;;;;119.80;108.80;25.00;99.90;;;;;;5056182;28;8758;-69
2021/12/31 13:46:34;;;;;;;;;114.60;100.80;25.00;99.90;;;;;;5057000;28;8771;-67
2021/12/31 13:49:09;;;;;;;;;106.60;98.20;25.00;99.90;;;;;;5018084;28;8849;-69
2021/12/31 13:51:39;;;;;;;;;106.60;95.60;25.00;99.90;;;;;;5017638;28;8774;-69
2021/12/31 13:54:07;;;;;;;;;108.40;98.40;25.00;99.90;;;;;;5017733;28;8779;-68
2021/12/31 13:56:47;;;;;;;;;105.60;94.40;24.80;99.90;;;;;;5017621;28;8869;-69
2021/12/31 13:59:36;;;;;;;;;120.60;104.20;24.70;99.90;;;;;;5017794;28;8865;-69
2021/12/31 14:02:20;;;;;;;;;109.60;100.20;24.80;99.90;;;;;;5013165;28;8754;-69
2021/12/31 14:04:58;;;;;;;;;105.60;93.00;24.80;99.90;;;;;;4998304;28;8765;-69
2021/12/31 14:07:35;;;;;;;;;90.00;85.80;24.70;99.90;;;;;;4998452;28;8809;-69
2021/12/31 14:10:05;;;;;;;;;103.60;93.00;24.70;99.90;;;;;;4998776;28;8836;-68
2021/12/31 14:12:43;;;;;;;;;97.00;88.20;24.70;99.90;;;;;;4997576;28;8766;-69
2021/12/31 14:15:10;;;;;;;;;95.80;85.40;24.60;99.90;;;;;;4964874;28;9462;-69
2021/12/31 14:17:37;;;;;;;;;98.60;92.60;24.50;99.90;;;;;;5006274;28;8802;-69
2021/12/31 14:20:04;;;;;;;;;93.60;83.40;24.60;99.90;;;;;;5017795;28;9445;-69
2021/12/31 14:22:30;;;;;;;;;88.00;82.20;24.40;99.90;;;;;;5017481;28;8803;-69
2021/12/31 14:25:00;;;;;;;;;89.00;85.60;24.60;99.90;;;;;;5016979;28;8735;-69
2021/12/31 14:27:27;;;;;;;;;88.00;83.40;24.60;99.90;;;;;;5017075;28;8795;-69
2021/12/31 14:29:55;;;;;;;;;88.40;79.60;24.60;99.90;;;;;;5017310;28;8798;-69
2021/12/31 14:32:22;;;;;;;;;93.20;86.40;24.60;99.90;;;;;;5016992;28;8873;-68
2021/12/31 14:34:49;;;;;;;;;89.40;83.80;24.40;99.90;;;;;;5017167;28;8838;-69
2021/12/31 14:37:16;;;;;;;;;93.80;78.60;24.50;99.90;;;;;;5017818;28;8771;-69
2021/12/31 14:39:51;;;;;;;;;83.20;74.40;24.60;99.90;;;;;;5017201;28;8763;-69
2021/12/31 14:42:22;;;;;;;;;81.80;73.80;24.60;99.90;;;;;;5016853;28;9009;-68
2021/12/31 14:44:49;;;;;;;;;86.60;84.40;24.60;99.90;;;;;;5016835;28;8886;-69
2021/12/31 14:47:16;;;;;;;;;97.80;87.20;24.50;99.90;;;;;;5028209;28;8817;-69
2021/12/31 14:49:43;;;;;;;;;98.20;88.20;24.40;99.90;;;;;;5056871;28;8718;-69
2021/12/31 14:52:10;;;;;;;;;106.60;93.00;24.40;99.90;;;;;;5057236;28;8769;-69
2021/12/31 14:54:37;;;;;;;;;88.20;75.80;24.40;99.90;;;;;;5056509;28;8758;-70
2021/12/31 14:57:05;;;;;;;;;92.00;86.80;24.40;99.90;;;;;;5056804;28;8796;-69
2021/12/31 14:59:32;;;;;;;;;101.20;89.20;24.40;99.90;;;;;;5056184;28;8800;-69
2021/12/31 15:01:59;;;;;;;;;106.20;97.80;24.40;99.90;;;;;;5056401;28;8780;-69
2021/12/31 15:04:26;;;;;;;;;133.60;116.40;24.30;99.90;;;;;;5056230;28;8730;-68
2021/12/31 15:06:55;;;;;;;;;119.40;108.60;24.20;99.90;;;;;;5055899;28;8750;-69
2021/12/31 15:09:22;;;;;;;;;138.60;124.60;24.20;99.90;;;;;;5055416;28;10095;-69
2021/12/31 15:11:51;;;;;;;;;138.00;117.40;24.20;99.90;;;;;;5056580;28;8858;-69
2021/12/31 15:14:18;;;;;;;;;117.40;107.20;24.20;99.90;;;;;;5056306;28;8831;-68
2021/12/31 15:16:45;;;;;;;;;116.20;99.20;23.80;99.90;;;;;;5056390;28;8809;-69
2021/12/31 15:19:12;;;;;;;;;126.80;109.40;23.70;99.90;;;;;;5057098;28;8752;-69
2021/12/31 15:21:39;;;;;;;;;110.20;102.20;23.80;99.90;;;;;;5054949;28;9395;-69
2021/12/31 15:24:06;;;;;;;;;116.20;102.40;23.80;99.90;;;;;;5056255;28;8803;-69
2021/12/31 15:26:33;;;;;;;;;127.40;116.60;24.00;99.90;;;;;;5056131;28;8797;-69
2021/12/31 15:29:00;;;;;;;;;125.60;104.40;23.90;99.90;;;;;;5056274;28;8868;-69
2021/12/31 15:31:26;;;;;;;;;138.00;121.20;23.90;99.90;;;;;;5056167;28;8726;-68
2021/12/31 15:33:53;;;;;;;;;141.00;126.60;23.90;99.90;;;;;;5055116;28;9442;-69
2021/12/31 15:36:20;;;;;;;;;129.80;116.40;23.90;99.90;;;;;;5055818;28;8738;-70